Concord, New Hampshire
Current Conditions -  °F | °C
As of 8:51 AM on Sunday 23 Nov 2014 (Local Time) from KCON Reporting Station
Broken Clouds Broken Clouds  
Wind Chill: 43°   Ceiling: 10000
Heat Index: 46°   Visibility: 10mi
Dew Point: 37°   Wind: 6mph
Humidity: 71%   Direction: 210°SSW
Pressure: 30.07"   Gusts: NA
Location:  43.21°N, 71.54°W
Report Text: KCON 231351Z AUTO 21005KT 10SM FEW070 BKN100 08/03 A3007 RMK AO2 SLP186 T00780028
Loading
Personal Weather Stations






























Interactive Weather Map New forecast layout! Learn more

10-Day Weather Forecast

Advertisements
Track Severe Weather on mobile